sensor_id;sensor_type;location;lat;lon;timestamp;temperature;humidity
12704;DHT22;6416;52.182;7.650;2023-01-15T00:01:34;11.10;90.90
12704;DHT22;6416;52.182;7.650;2023-01-15T00:04:00;11.10;91.00
12704;DHT22;6416;52.182;7.650;2023-01-15T00:06:26;11.10;91.00
12704;DHT22;6416;52.182;7.650;2023-01-15T00:08:52;11.10;91.00
12704;DHT22;6416;52.182;7.650;2023-01-15T00:11:19;11.10;91.00
12704;DHT22;6416;52.182;7.650;2023-01-15T00:13:45;11.10;91.10
12704;DHT22;6416;52.182;7.650;2023-01-15T00:16:13;11.00;91.00
12704;DHT22;6416;52.182;7.650;2023-01-15T00:18:39;11.00;91.00
12704;DHT22;6416;52.182;7.650;2023-01-15T00:21:07;11.00;91.10
12704;DHT22;6416;52.182;7.650;2023-01-15T00:23:33;11.00;91.10
12704;DHT22;6416;52.182;7.650;2023-01-15T00:25:58;11.00;91.20
12704;DHT22;6416;52.182;7.650;2023-01-15T00:28:24;11.00;91.20
12704;DHT22;6416;52.182;7.650;2023-01-15T00:30:49;11.00;91.20
12704;DHT22;6416;52.182;7.650;2023-01-15T00:33:15;11.00;91.20
12704;DHT22;6416;52.182;7.650;2023-01-15T00:35:40;11.00;91.20
12704;DHT22;6416;52.182;7.650;2023-01-15T00:38:06;11.00;91.20
12704;DHT22;6416;52.182;7.650;2023-01-15T00:40:31;11.00;91.20
12704;DHT22;6416;52.182;7.650;2023-01-15T00:42:56;11.00;91.30
12704;DHT22;6416;52.182;7.650;2023-01-15T00:45:22;11.00;91.30
12704;DHT22;6416;52.182;7.650;2023-01-15T00:47:47;11.00;91.20
12704;DHT22;6416;52.182;7.650;2023-01-15T00:50:14;11.00;91.30
12704;DHT22;6416;52.182;7.650;2023-01-15T00:52:40;11.00;91.10
12704;DHT22;6416;52.182;7.650;2023-01-15T00:55:07;10.90;91.10
12704;DHT22;6416;52.182;7.650;2023-01-15T00:57:33;10.90;91.10
12704;DHT22;6416;52.182;7.650;2023-01-15T00:59:58;10.90;91.20
12704;DHT22;6416;52.182;7.650;2023-01-15T01:02:24;10.90;91.10
12704;DHT22;6416;52.182;7.650;2023-01-15T01:04:50;10.90;91.10
12704;DHT22;6416;52.182;7.650;2023-01-15T01:07:15;10.90;91.00
12704;DHT22;6416;52.182;7.650;2023-01-15T01:09:41;10.90;91.10
12704;DHT22;6416;52.182;7.650;2023-01-15T01:12:06;10.90;91.10
12704;DHT22;6416;52.182;7.650;2023-01-15T01:14:32;10.90;91.00
12704;DHT22;6416;52.182;7.650;2023-01-15T01:16:58;10.90;90.90
12704;DHT22;6416;52.182;7.650;2023-01-15T01:19:24;10.90;90.90
12704;DHT22;6416;52.182;7.650;2023-01-15T01:21:51;10.90;90.90
12704;DHT22;6416;52.182;7.650;2023-01-15T01:24:19;10.90;91.10
12704;DHT22;6416;52.182;7.650;2023-01-15T01:26:46;10.90;91.10
12704;DHT22;6416;52.182;7.650;2023-01-15T01:29:13;10.90;91.00
12704;DHT22;6416;52.182;7.650;2023-01-15T01:31:38;10.80;90.90
12704;DHT22;6416;52.182;7.650;2023-01-15T01:34:04;10.90;91.00
12704;DHT22;6416;52.182;7.650;2023-01-15T01:36:32;10.90;90.90
12704;DHT22;6416;52.182;7.650;2023-01-15T01:38:58;10.90;90.90
12704;DHT22;6416;52.182;7.650;2023-01-15T01:41:24;10.80;90.90
12704;DHT22;6416;52.182;7.650;2023-01-15T01:44:05;10.90;91.00
12704;DHT22;6416;52.182;7.650;2023-01-15T01:46:35;10.90;90.50
12704;DHT22;6416;52.182;7.650;2023-01-15T01:49:08;10.90;90.80
12704;DHT22;6416;52.182;7.650;2023-01-15T01:51:40;10.90;90.30
12704;DHT22;6416;52.182;7.650;2023-01-15T01:54:08;10.90;90.40
12704;DHT22;6416;52.182;7.650;2023-01-15T01:56:35;10.90;90.40
12704;DHT22;6416;52.182;7.650;2023-01-15T01:59:02;10.90;90.20
12704;DHT22;6416;52.182;7.650;2023-01-15T02:01:28;10.80;89.90
12704;DHT22;6416;52.182;7.650;2023-01-15T02:03:54;10.80;89.90
12704;DHT22;6416;52.182;7.650;2023-01-15T02:06:21;10.80;89.40
12704;DHT22;6416;52.182;7.650;2023-01-15T02:08:47;10.70;89.10
12704;DHT22;6416;52.182;7.650;2023-01-15T02:11:17;10.70;89.00
12704;DHT22;6416;52.182;7.650;2023-01-15T02:13:49;10.60;88.70
12704;DHT22;6416;52.182;7.650;2023-01-15T02:24:43;10.40;89.70
12704;DHT22;6416;52.182;7.650;2023-01-15T02:27:16;10.40;88.70
12704;DHT22;6416;52.182;7.650;2023-01-15T02:30:10;10.40;89.70
12704;DHT22;6416;52.182;7.650;2023-01-15T02:32:45;10.40;89.00
12704;DHT22;6416;52.182;7.650;2023-01-15T02:35:40;10.40;88.70
12704;DHT22;6416;52.182;7.650;2023-01-15T02:38:12;10.30;87.90
12704;DHT22;6416;52.182;7.650;2023-01-15T02:40:39;10.30;89.50
12704;DHT22;6416;52.182;7.650;2023-01-15T02:43:05;10.30;89.60
12704;DHT22;6416;52.182;7.650;2023-01-15T02:45:34;10.20;89.70
12704;DHT22;6416;52.182;7.650;2023-01-15T02:48:23;10.20;89.40
12704;DHT22;6416;52.182;7.650;2023-01-15T02:50:54;10.20;87.60
12704;DHT22;6416;52.182;7.650;2023-01-15T02:53:24;10.20;89.90
12704;DHT22;6416;52.182;7.650;2023-01-15T02:55:53;10.20;89.80
12704;DHT22;6416;52.182;7.650;2023-01-15T02:58:24;10.10;89.70
12704;DHT22;6416;52.182;7.650;2023-01-15T03:00:53;10.10;89.40
12704;DHT22;6416;52.182;7.650;2023-01-15T03:06:24;10.10;89.50
12704;DHT22;6416;52.182;7.650;2023-01-15T03:08:51;10.10;89.00
12704;DHT22;6416;52.182;7.650;2023-01-15T03:11:19;10.10;89.70
12704;DHT22;6416;52.182;7.650;2023-01-15T03:16:39;10.00;89.10
12704;DHT22;6416;52.182;7.650;2023-01-15T03:19:38;10.00;89.10
12704;DHT22;6416;52.182;7.650;2023-01-15T03:22:43;10.00;89.40
12704;DHT22;6416;52.182;7.650;2023-01-15T03:25:21;10.00;88.00
12704;DHT22;6416;52.182;7.650;2023-01-15T03:27:48;10.00;89.00
12704;DHT22;6416;52.182;7.650;2023-01-15T03:30:17;10.00;89.70
12704;DHT22;6416;52.182;7.650;2023-01-15T03:32:43;10.00;89.90
12704;DHT22;6416;52.182;7.650;2023-01-15T03:38:10;10.00;88.60
12704;DHT22;6416;52.182;7.650;2023-01-15T03:40:37;10.00;90.00
12704;DHT22;6416;52.182;7.650;2023-01-15T03:43:08;9.90;90.30
12704;DHT22;6416;52.182;7.650;2023-01-15T03:45:36;9.90;90.10
12704;DHT22;6416;52.182;7.650;2023-01-15T03:50:41;9.90;89.90
12704;DHT22;6416;52.182;7.650;2023-01-15T03:56:14;9.90;88.60
12704;DHT22;6416;52.182;7.650;2023-01-15T03:58:45;9.80;89.50
12704;DHT22;6416;52.182;7.650;2023-01-15T04:01:16;9.80;90.00
12704;DHT22;6416;52.182;7.650;2023-01-15T04:03:42;9.80;90.00
12704;DHT22;6416;52.182;7.650;2023-01-15T04:06:09;9.80;90.00
12704;DHT22;6416;52.182;7.650;2023-01-15T04:08:38;9.80;90.10
12704;DHT22;6416;52.182;7.650;2023-01-15T04:11:05;9.80;90.00
12704;DHT22;6416;52.182;7.650;2023-01-15T04:13:30;9.80;90.10
12704;DHT22;6416;52.182;7.650;2023-01-15T04:15:56;9.80;90.10
12704;DHT22;6416;52.182;7.650;2023-01-15T04:18:21;9.70;90.00
12704;DHT22;6416;52.182;7.650;2023-01-15T04:20:47;9.70;90.00
12704;DHT22;6416;52.182;7.650;2023-01-15T04:23:13;9.70;90.10
12704;DHT22;6416;52.182;7.650;2023-01-15T04:25:39;9.70;90.10
12704;DHT22;6416;52.182;7.650;2023-01-15T04:28:05;9.70;90.20
12704;DHT22;6416;52.182;7.650;2023-01-15T04:30:31;9.70;90.20
12704;DHT22;6416;52.182;7.650;2023-01-15T04:32:57;9.70;90.20
12704;DHT22;6416;52.182;7.650;2023-01-15T04:35:23;9.60;90.10
12704;DHT22;6416;52.182;7.650;2023-01-15T04:37:48;9.60;90.00
12704;DHT22;6416;52.182;7.650;2023-01-15T04:40:14;9.60;90.10
12704;DHT22;6416;52.182;7.650;2023-01-15T04:42:39;9.60;90.10
12704;DHT22;6416;52.182;7.650;2023-01-15T04:45:05;9.60;90.10
12704;DHT22;6416;52.182;7.650;2023-01-15T04:47:31;9.60;90.00
12704;DHT22;6416;52.182;7.650;2023-01-15T04:49:56;9.60;90.00
12704;DHT22;6416;52.182;7.650;2023-01-15T04:52:22;9.60;90.00
12704;DHT22;6416;52.182;7.650;2023-01-15T04:54:47;9.60;90.00
12704;DHT22;6416;52.182;7.650;2023-01-15T04:57:13;9.50;89.90
12704;DHT22;6416;52.182;7.650;2023-01-15T04:59:38;9.50;90.00
12704;DHT22;6416;52.182;7.650;2023-01-15T05:02:04;9.50;90.00
12704;DHT22;6416;52.182;7.650;2023-01-15T05:04:30;9.50;89.80
12704;DHT22;6416;52.182;7.650;2023-01-15T05:06:55;9.50;89.70
12704;DHT22;6416;52.182;7.650;2023-01-15T05:09:21;9.50;89.80
12704;DHT22;6416;52.182;7.650;2023-01-15T05:11:46;9.50;89.70
12704;DHT22;6416;52.182;7.650;2023-01-15T05:14:12;9.40;89.60
12704;DHT22;6416;52.182;7.650;2023-01-15T05:16:37;9.40;89.60
12704;DHT22;6416;52.182;7.650;2023-01-15T05:19:04;9.40;89.80
12704;DHT22;6416;52.182;7.650;2023-01-15T05:21:32;9.40;89.60
12704;DHT22;6416;52.182;7.650;2023-01-15T05:24:00;9.40;90.00
12704;DHT22;6416;52.182;7.650;2023-01-15T05:26:28;9.40;89.90
12704;DHT22;6416;52.182;7.650;2023-01-15T05:28:55;9.40;90.00
12704;DHT22;6416;52.182;7.650;2023-01-15T05:31:22;9.40;90.00
12704;DHT22;6416;52.182;7.650;2023-01-15T05:33:48;9.40;89.90
12704;DHT22;6416;52.182;7.650;2023-01-15T05:36:20;9.30;89.70
12704;DHT22;6416;52.182;7.650;2023-01-15T05:38:45;9.30;90.00
12704;DHT22;6416;52.182;7.650;2023-01-15T05:41:14;9.30;90.00
12704;DHT22;6416;52.182;7.650;2023-01-15T05:43:39;9.40;90.10
12704;DHT22;6416;52.182;7.650;2023-01-15T05:46:05;9.40;90.10
12704;DHT22;6416;52.182;7.650;2023-01-15T05:48:30;9.40;90.10
12704;DHT22;6416;52.182;7.650;2023-01-15T05:50:56;9.40;90.20
12704;DHT22;6416;52.182;7.650;2023-01-15T05:53:25;9.30;90.10
12704;DHT22;6416;52.182;7.650;2023-01-15T05:55:51;9.30;90.10
12704;DHT22;6416;52.182;7.650;2023-01-15T05:58:16;9.40;90.20
12704;DHT22;6416;52.182;7.650;2023-01-15T06:00:42;9.40;90.20
12704;DHT22;6416;52.182;7.650;2023-01-15T06:03:07;9.30;90.10
12704;DHT22;6416;52.182;7.650;2023-01-15T06:05:33;9.40;90.20
12704;DHT22;6416;52.182;7.650;2023-01-15T06:07:58;9.40;90.10
12704;DHT22;6416;52.182;7.650;2023-01-15T06:10:23;9.40;90.30
12704;DHT22;6416;52.182;7.650;2023-01-15T06:12:49;9.40;90.30
12704;DHT22;6416;52.182;7.650;2023-01-15T06:15:14;9.40;90.20
12704;DHT22;6416;52.182;7.650;2023-01-15T06:17:40;9.40;90.30
12704;DHT22;6416;52.182;7.650;2023-01-15T06:20:06;9.40;90.10
12704;DHT22;6416;52.182;7.650;2023-01-15T06:22:31;9.40;90.20
12704;DHT22;6416;52.182;7.650;2023-01-15T06:24:57;9.40;90.10
12704;DHT22;6416;52.182;7.650;2023-01-15T06:27:22;9.40;90.10
12704;DHT22;6416;52.182;7.650;2023-01-15T06:29:48;9.40;90.00
12704;DHT22;6416;52.182;7.650;2023-01-15T06:32:13;9.40;90.20
12704;DHT22;6416;52.182;7.650;2023-01-15T06:34:39;9.40;90.20
12704;DHT22;6416;52.182;7.650;2023-01-15T06:37:04;9.40;90.10
12704;DHT22;6416;52.182;7.650;2023-01-15T06:39:30;9.40;90.10
12704;DHT22;6416;52.182;7.650;2023-01-15T06:41:55;9.40;90.10
12704;DHT22;6416;52.182;7.650;2023-01-15T06:44:21;9.40;90.20
12704;DHT22;6416;52.182;7.650;2023-01-15T06:46:49;9.40;90.10
12704;DHT22;6416;52.182;7.650;2023-01-15T06:49:14;9.40;90.10
12704;DHT22;6416;52.182;7.650;2023-01-15T06:51:40;9.40;90.10
12704;DHT22;6416;52.182;7.650;2023-01-15T06:54:05;9.40;90.30
12704;DHT22;6416;52.182;7.650;2023-01-15T06:56:31;9.40;90.20
12704;DHT22;6416;52.182;7.650;2023-01-15T06:58:56;9.40;90.20
12704;DHT22;6416;52.182;7.650;2023-01-15T07:01:22;9.40;90.30
12704;DHT22;6416;52.182;7.650;2023-01-15T07:03:47;9.40;90.30
12704;DHT22;6416;52.182;7.650;2023-01-15T07:06:12;9.40;90.30
12704;DHT22;6416;52.182;7.650;2023-01-15T07:08:38;9.40;90.30
12704;DHT22;6416;52.182;7.650;2023-01-15T07:11:06;9.40;90.30
12704;DHT22;6416;52.182;7.650;2023-01-15T07:13:32;9.40;90.10
12704;DHT22;6416;52.182;7.650;2023-01-15T07:16:02;9.40;90.20
12704;DHT22;6416;52.182;7.650;2023-01-15T07:18:30;9.40;90.00
12704;DHT22;6416;52.182;7.650;2023-01-15T07:20:57;9.40;89.90
12704;DHT22;6416;52.182;7.650;2023-01-15T07:23:24;9.40;90.00
12704;DHT22;6416;52.182;7.650;2023-01-15T07:25:51;9.40;89.90
12704;DHT22;6416;52.182;7.650;2023-01-15T07:28:17;9.40;90.10
12704;DHT22;6416;52.182;7.650;2023-01-15T07:30:43;9.40;90.20
12704;DHT22;6416;52.182;7.650;2023-01-15T07:33:08;9.40;90.10
12704;DHT22;6416;52.182;7.650;2023-01-15T07:35:34;9.40;90.10
12704;DHT22;6416;52.182;7.650;2023-01-15T07:38:00;9.40;90.00
12704;DHT22;6416;52.182;7.650;2023-01-15T07:40:25;9.40;90.00
12704;DHT22;6416;52.182;7.650;2023-01-15T07:42:51;9.40;89.80
12704;DHT22;6416;52.182;7.650;2023-01-15T07:45:16;9.40;89.80
12704;DHT22;6416;52.182;7.650;2023-01-15T07:47:42;9.40;89.60
12704;DHT22;6416;52.182;7.650;2023-01-15T07:50:17;9.30;89.70
12704;DHT22;6416;52.182;7.650;2023-01-15T07:52:43;9.30;89.20
12704;DHT22;6416;52.182;7.650;2023-01-15T07:55:09;9.30;89.60
12704;DHT22;6416;52.182;7.650;2023-01-15T07:57:36;9.30;89.60
12704;DHT22;6416;52.182;7.650;2023-01-15T08:00:02;9.30;89.50
12704;DHT22;6416;52.182;7.650;2023-01-15T08:02:27;9.30;89.70
12704;DHT22;6416;52.182;7.650;2023-01-15T08:04:53;9.30;89.60
12704;DHT22;6416;52.182;7.650;2023-01-15T08:07:18;9.30;89.60
12704;DHT22;6416;52.182;7.650;2023-01-15T08:09:44;9.30;89.40
12704;DHT22;6416;52.182;7.650;2023-01-15T08:12:10;9.30;89.30
12704;DHT22;6416;52.182;7.650;2023-01-15T08:14:35;9.30;89.80
12704;DHT22;6416;52.182;7.650;2023-01-15T08:17:01;9.30;89.40
12704;DHT22;6416;52.182;7.650;2023-01-15T08:19:27;9.30;89.50
12704;DHT22;6416;52.182;7.650;2023-01-15T08:21:52;9.30;89.30
12704;DHT22;6416;52.182;7.650;2023-01-15T08:24:17;9.30;88.90
12704;DHT22;6416;52.182;7.650;2023-01-15T08:26:43;9.20;89.00
12704;DHT22;6416;52.182;7.650;2023-01-15T08:29:08;9.30;88.90
12704;DHT22;6416;52.182;7.650;2023-01-15T08:31:34;9.20;89.10
12704;DHT22;6416;52.182;7.650;2023-01-15T08:33:59;9.30;89.10
12704;DHT22;6416;52.182;7.650;2023-01-15T08:36:25;9.20;88.80
12704;DHT22;6416;52.182;7.650;2023-01-15T08:38:51;9.20;89.00
12704;DHT22;6416;52.182;7.650;2023-01-15T08:41:16;9.20;89.50
12704;DHT22;6416;52.182;7.650;2023-01-15T08:43:42;9.20;89.80
12704;DHT22;6416;52.182;7.650;2023-01-15T08:46:08;9.20;90.00
12704;DHT22;6416;52.182;7.650;2023-01-15T08:48:34;9.20;89.90
12704;DHT22;6416;52.182;7.650;2023-01-15T08:51:07;9.30;90.00
12704;DHT22;6416;52.182;7.650;2023-01-15T08:53:33;9.30;88.00
12704;DHT22;6416;52.182;7.650;2023-01-15T08:55:59;9.30;89.60
12704;DHT22;6416;52.182;7.650;2023-01-15T08:58:31;9.30;89.60
12704;DHT22;6416;52.182;7.650;2023-01-15T09:01:05;9.30;88.90
12704;DHT22;6416;52.182;7.650;2023-01-15T09:03:31;9.30;88.70
12704;DHT22;6416;52.182;7.650;2023-01-15T09:05:59;9.30;89.30
12704;DHT22;6416;52.182;7.650;2023-01-15T09:08:26;9.40;89.20
12704;DHT22;6416;52.182;7.650;2023-01-15T09:10:56;9.30;89.10
12704;DHT22;6416;52.182;7.650;2023-01-15T09:13:22;9.30;89.00
12704;DHT22;6416;52.182;7.650;2023-01-15T09:15:47;9.40;89.60
12704;DHT22;6416;52.182;7.650;2023-01-15T09:18:13;9.40;90.20
12704;DHT22;6416;52.182;7.650;2023-01-15T09:20:38;9.50;90.80
12704;DHT22;6416;52.182;7.650;2023-01-15T09:23:04;9.50;91.00
12704;DHT22;6416;52.182;7.650;2023-01-15T09:25:29;9.60;91.00
12704;DHT22;6416;52.182;7.650;2023-01-15T09:27:55;9.70;91.30
12704;DHT22;6416;52.182;7.650;2023-01-15T09:30:21;9.80;91.50
12704;DHT22;6416;52.182;7.650;2023-01-15T09:32:46;9.90;91.80
12704;DHT22;6416;52.182;7.650;2023-01-15T09:35:12;10.10;91.20
12704;DHT22;6416;52.182;7.650;2023-01-15T09:37:37;10.30;92.20
12704;DHT22;6416;52.182;7.650;2023-01-15T09:40:04;10.40;92.20
12704;DHT22;6416;52.182;7.650;2023-01-15T09:45:25;10.70;90.10
12704;DHT22;6416;52.182;7.650;2023-01-15T09:53:48;10.70;89.10
12704;DHT22;6416;52.182;7.650;2023-01-15T09:56:27;10.90;89.80
12704;DHT22;6416;52.182;7.650;2023-01-15T09:58:55;11.00;89.40
12704;DHT22;6416;52.182;7.650;2023-01-15T10:01:28;11.20;90.80
12704;DHT22;6416;52.182;7.650;2023-01-15T10:04:11;11.20;88.30
12704;DHT22;6416;52.182;7.650;2023-01-15T10:06:49;11.30;88.20
12704;DHT22;6416;52.182;7.650;2023-01-15T10:09:26;11.30;86.80
12704;DHT22;6416;52.182;7.650;2023-01-15T10:12:03;11.30;87.50
12704;DHT22;6416;52.182;7.650;2023-01-15T10:17:21;11.30;86.20
12704;DHT22;6416;52.182;7.650;2023-01-15T10:19:49;11.50;88.10
12704;DHT22;6416;52.182;7.650;2023-01-15T10:22:43;11.50;87.20
12704;DHT22;6416;52.182;7.650;2023-01-15T10:25:16;11.60;87.70
12704;DHT22;6416;52.182;7.650;2023-01-15T10:27:46;11.90;90.50
12704;DHT22;6416;52.182;7.650;2023-01-15T10:30:32;12.20;93.00
12704;DHT22;6416;52.182;7.650;2023-01-15T10:33:15;12.60;91.20
12704;DHT22;6416;52.182;7.650;2023-01-15T10:36:14;13.00;91.80
12704;DHT22;6416;52.182;7.650;2023-01-15T10:41:32;13.90;92.40
12704;DHT22;6416;52.182;7.650;2023-01-15T10:44:10;14.30;91.30
12704;DHT22;6416;52.182;7.650;2023-01-15T10:46:38;14.60;88.30
12704;DHT22;6416;52.182;7.650;2023-01-15T10:49:11;14.70;86.30
12704;DHT22;6416;52.182;7.650;2023-01-15T10:51:44;14.70;81.50
12704;DHT22;6416;52.182;7.650;2023-01-15T10:56:59;14.40;84.30
12704;DHT22;6416;52.182;7.650;2023-01-15T10:59:55;14.40;83.90
12704;DHT22;6416;52.182;7.650;2023-01-15T11:02:46;14.20;81.50
12704;DHT22;6416;52.182;7.650;2023-01-15T11:05:18;14.10;74.10
12704;DHT22;6416;52.182;7.650;2023-01-15T11:07:47;13.90;81.00
12704;DHT22;6416;52.182;7.650;2023-01-15T11:10:16;13.70;81.60
12704;DHT22;6416;52.182;7.650;2023-01-15T11:12:56;13.60;80.50
12704;DHT22;6416;52.182;7.650;2023-01-15T11:15:24;13.40;79.80
12704;DHT22;6416;52.182;7.650;2023-01-15T11:17:50;13.30;83.00
12704;DHT22;6416;52.182;7.650;2023-01-15T11:20:41;13.20;82.40
12704;DHT22;6416;52.182;7.650;2023-01-15T11:23:20;13.20;83.50
12704;DHT22;6416;52.182;7.650;2023-01-15T11:25:58;13.10;81.00
12704;DHT22;6416;52.182;7.650;2023-01-15T11:28:34;13.10;78.70
12704;DHT22;6416;52.182;7.650;2023-01-15T11:31:00;13.00;79.60
12704;DHT22;6416;52.182;7.650;2023-01-15T11:33:27;13.00;82.70
12704;DHT22;6416;52.182;7.650;2023-01-15T11:35:55;13.00;82.10
12704;DHT22;6416;52.182;7.650;2023-01-15T11:38:21;13.00;82.50
12704;DHT22;6416;52.182;7.650;2023-01-15T11:40:51;13.00;83.30
12704;DHT22;6416;52.182;7.650;2023-01-15T11:43:20;12.90;80.90
12704;DHT22;6416;52.182;7.650;2023-01-15T11:45:50;12.90;81.80
12704;DHT22;6416;52.182;7.650;2023-01-15T11:48:22;12.90;81.90
12704;DHT22;6416;52.182;7.650;2023-01-15T11:50:52;12.80;81.30
12704;DHT22;6416;52.182;7.650;2023-01-15T11:53:21;12.70;80.40
12704;DHT22;6416;52.182;7.650;2023-01-15T11:55:54;12.70;80.30
12704;DHT22;6416;52.182;7.650;2023-01-15T11:58:21;12.60;79.10
12704;DHT22;6416;52.182;7.650;2023-01-15T12:00:49;12.50;81.00
12704;DHT22;6416;52.182;7.650;2023-01-15T12:03:18;12.40;80.00
12704;DHT22;6416;52.182;7.650;2023-01-15T12:05:46;12.30;80.80
12704;DHT22;6416;52.182;7.650;2023-01-15T12:08:48;12.20;80.20
12704;DHT22;6416;52.182;7.650;2023-01-15T12:11:39;12.10;78.70
12704;DHT22;6416;52.182;7.650;2023-01-15T12:22:33;11.80;80.20
12704;DHT22;6416;52.182;7.650;2023-01-15T12:25:28;11.70;81.20
12704;DHT22;6416;52.182;7.650;2023-01-15T12:28:11;11.70;80.10
12704;DHT22;6416;52.182;7.650;2023-01-15T12:41:51;11.60;81.00
12704;DHT22;6416;52.182;7.650;2023-01-15T12:46:54;11.70;82.90
12704;DHT22;6416;52.182;7.650;2023-01-15T12:49:35;11.70;82.90
12704;DHT22;6416;52.182;7.650;2023-01-15T12:52:12;11.70;79.80
12704;DHT22;6416;52.182;7.650;2023-01-15T12:54:44;11.70;82.20
12704;DHT22;6416;52.182;7.650;2023-01-15T12:57:17;11.60;81.00
12704;DHT22;6416;52.182;7.650;2023-01-15T12:59:53;11.60;81.60
12704;DHT22;6416;52.182;7.650;2023-01-15T13:02:35;11.60;79.80
12704;DHT22;6416;52.182;7.650;2023-01-15T13:05:29;11.60;81.60
12704;DHT22;6416;52.182;7.650;2023-01-15T13:10:56;11.60;80.90
12704;DHT22;6416;52.182;7.650;2023-01-15T13:13:24;11.50;82.50
12704;DHT22;6416;52.182;7.650;2023-01-15T13:21:21;11.50;81.40
12704;DHT22;6416;52.182;7.650;2023-01-15T13:36:59;11.40;80.30
12704;DHT22;6416;52.182;7.650;2023-01-15T13:39:35;11.40;80.90
12704;DHT22;6416;52.182;7.650;2023-01-15T13:42:02;11.40;80.20
12704;DHT22;6416;52.182;7.650;2023-01-15T13:44:33;11.30;81.30
12704;DHT22;6416;52.182;7.650;2023-01-15T13:47:09;11.30;80.40
12704;DHT22;6416;52.182;7.650;2023-01-15T13:49:49;11.30;81.10
12704;DHT22;6416;52.182;7.650;2023-01-15T13:52:25;11.30;79.10
12704;DHT22;6416;52.182;7.650;2023-01-15T13:54:51;11.30;80.00
12704;DHT22;6416;52.182;7.650;2023-01-15T13:57:36;11.30;80.80
12704;DHT22;6416;52.182;7.650;2023-01-15T14:00:33;11.20;78.50
12704;DHT22;6416;52.182;7.650;2023-01-15T14:03:01;11.20;79.20
12704;DHT22;6416;52.182;7.650;2023-01-15T14:05:30;11.20;80.60
12704;DHT22;6416;52.182;7.650;2023-01-15T14:07:56;11.10;80.60
12704;DHT22;6416;52.182;7.650;2023-01-15T14:10:25;11.10;80.80
12704;DHT22;6416;52.182;7.650;2023-01-15T14:13:31;11.00;79.80
12704;DHT22;6416;52.182;7.650;2023-01-15T14:16:18;11.00;79.00
12704;DHT22;6416;52.182;7.650;2023-01-15T14:21:52;10.90;80.80
12704;DHT22;6416;52.182;7.650;2023-01-15T14:24:41;10.80;80.30
12704;DHT22;6416;52.182;7.650;2023-01-15T14:27:53;10.80;80.60
12704;DHT22;6416;52.182;7.650;2023-01-15T14:36:18;10.60;80.40
12704;DHT22;6416;52.182;7.650;2023-01-15T14:38:47;10.60;80.80
12704;DHT22;6416;52.182;7.650;2023-01-15T14:41:14;10.60;81.30
12704;DHT22;6416;52.182;7.650;2023-01-15T14:43:47;10.60;81.60
12704;DHT22;6416;52.182;7.650;2023-01-15T14:46:23;10.60;81.10
12704;DHT22;6416;52.182;7.650;2023-01-15T14:48:50;10.60;80.30
12704;DHT22;6416;52.182;7.650;2023-01-15T14:51:21;10.60;81.80
12704;DHT22;6416;52.182;7.650;2023-01-15T14:53:56;10.60;80.90
12704;DHT22;6416;52.182;7.650;2023-01-15T14:56:29;10.50;80.80
12704;DHT22;6416;52.182;7.650;2023-01-15T15:04:41;10.50;78.50
12704;DHT22;6416;52.182;7.650;2023-01-15T15:07:12;10.50;80.00
12704;DHT22;6416;52.182;7.650;2023-01-15T15:09:42;10.50;81.80
12704;DHT22;6416;52.182;7.650;2023-01-15T15:16:06;10.50;81.30
12704;DHT22;6416;52.182;7.650;2023-01-15T15:20:54;10.50;81.10
12704;DHT22;6416;52.182;7.650;2023-01-15T15:26:04;10.40;81.50
12704;DHT22;6416;52.182;7.650;2023-01-15T15:28:29;10.40;80.70
12704;DHT22;6416;52.182;7.650;2023-01-15T15:30:56;10.30;81.70
12704;DHT22;6416;52.182;7.650;2023-01-15T15:33:24;10.30;82.00
12704;DHT22;6416;52.182;7.650;2023-01-15T15:35:53;10.30;81.60
12704;DHT22;6416;52.182;7.650;2023-01-15T15:38:22;10.20;81.60
12704;DHT22;6416;52.182;7.650;2023-01-15T15:40:59;10.20;81.90
12704;DHT22;6416;52.182;7.650;2023-01-15T15:43:30;10.20;81.60
12704;DHT22;6416;52.182;7.650;2023-01-15T15:46:00;10.10;81.90
12704;DHT22;6416;52.182;7.650;2023-01-15T15:48:32;10.10;81.90
12704;DHT22;6416;52.182;7.650;2023-01-15T15:50:58;10.10;81.60
12704;DHT22;6416;52.182;7.650;2023-01-15T15:53:24;10.00;82.40
12704;DHT22;6416;52.182;7.650;2023-01-15T15:55:50;10.00;82.60
12704;DHT22;6416;52.182;7.650;2023-01-15T15:58:36;10.00;82.80
12704;DHT22;6416;52.182;7.650;2023-01-15T16:01:02;10.00;82.30
12704;DHT22;6416;52.182;7.650;2023-01-15T16:03:29;10.00;83.30
12704;DHT22;6416;52.182;7.650;2023-01-15T16:05:56;10.00;83.20
12704;DHT22;6416;52.182;7.650;2023-01-15T16:08:22;10.00;83.70
12704;DHT22;6416;52.182;7.650;2023-01-15T16:10:57;10.00;83.30
12704;DHT22;6416;52.182;7.650;2023-01-15T16:13:44;10.00;82.40
12704;DHT22;6416;52.182;7.650;2023-01-15T16:16:12;10.00;81.30
12704;DHT22;6416;52.182;7.650;2023-01-15T16:18:44;9.90;83.20
12704;DHT22;6416;52.182;7.650;2023-01-15T16:21:25;9.90;82.50
12704;DHT22;6416;52.182;7.650;2023-01-15T16:24:01;9.80;82.90
12704;DHT22;6416;52.182;7.650;2023-01-15T16:26:34;9.80;82.20
12704;DHT22;6416;52.182;7.650;2023-01-15T16:29:13;9.70;82.00
12704;DHT22;6416;52.182;7.650;2023-01-15T16:31:40;9.70;82.20
12704;DHT22;6416;52.182;7.650;2023-01-15T16:34:05;9.60;82.70
12704;DHT22;6416;52.182;7.650;2023-01-15T16:36:39;9.50;82.50
12704;DHT22;6416;52.182;7.650;2023-01-15T16:39:06;9.50;82.60
12704;DHT22;6416;52.182;7.650;2023-01-15T16:41:42;9.50;83.50
12704;DHT22;6416;52.182;7.650;2023-01-15T16:44:23;9.50;84.00
12704;DHT22;6416;52.182;7.650;2023-01-15T16:46:54;9.40;83.50
12704;DHT22;6416;52.182;7.650;2023-01-15T16:51:47;9.40;84.60
12704;DHT22;6416;52.182;7.650;2023-01-15T16:56:59;9.40;83.90
12704;DHT22;6416;52.182;7.650;2023-01-15T17:01:50;9.40;85.10
12704;DHT22;6416;52.182;7.650;2023-01-15T17:04:36;9.40;85.10
12704;DHT22;6416;52.182;7.650;2023-01-15T17:07:15;9.40;84.20
12704;DHT22;6416;52.182;7.650;2023-01-15T17:09:57;9.40;85.00
12704;DHT22;6416;52.182;7.650;2023-01-15T17:12:29;9.40;85.10
12704;DHT22;6416;52.182;7.650;2023-01-15T17:17:46;9.40;85.20
12704;DHT22;6416;52.182;7.650;2023-01-15T17:20:12;9.40;85.80
12704;DHT22;6416;52.182;7.650;2023-01-15T17:22:41;9.40;86.00
12704;DHT22;6416;52.182;7.650;2023-01-15T17:25:39;9.40;85.90
12704;DHT22;6416;52.182;7.650;2023-01-15T17:28:04;9.40;85.30
12704;DHT22;6416;52.182;7.650;2023-01-15T17:30:30;9.40;86.10
12704;DHT22;6416;52.182;7.650;2023-01-15T17:33:00;9.40;86.10
12704;DHT22;6416;52.182;7.650;2023-01-15T17:35:31;9.40;86.40
12704;DHT22;6416;52.182;7.650;2023-01-15T17:37:57;9.40;86.30
12704;DHT22;6416;52.182;7.650;2023-01-15T17:40:23;9.40;86.80
12704;DHT22;6416;52.182;7.650;2023-01-15T17:42:49;9.40;86.70
12704;DHT22;6416;52.182;7.650;2023-01-15T17:45:21;9.40;86.70
12704;DHT22;6416;52.182;7.650;2023-01-15T17:47:47;9.40;87.40
12704;DHT22;6416;52.182;7.650;2023-01-15T17:50:13;9.50;86.90
12704;DHT22;6416;52.182;7.650;2023-01-15T17:52:39;9.40;87.00
12704;DHT22;6416;52.182;7.650;2023-01-15T17:55:05;9.50;87.00
12704;DHT22;6416;52.182;7.650;2023-01-15T17:57:30;9.50;87.20
12704;DHT22;6416;52.182;7.650;2023-01-15T17:59:56;9.50;87.20
12704;DHT22;6416;52.182;7.650;2023-01-15T18:02:21;9.50;87.20
12704;DHT22;6416;52.182;7.650;2023-01-15T18:04:50;9.50;87.10
12704;DHT22;6416;52.182;7.650;2023-01-15T18:07:19;9.50;87.00